createdAt,value
2019-05-01T00:01:37.250Z,39.63
2019-05-01T00:04:16.994Z,40.00
2019-05-01T00:06:49.729Z,42.03
2019-05-01T00:09:21.126Z,41.30
2019-05-01T00:12:03.322Z,41.73
2019-05-01T00:14:35.320Z,41.17
2019-05-01T00:17:05.791Z,40.63
2019-05-01T00:19:35.968Z,40.37
2019-05-01T00:22:06.347Z,40.93
2019-05-01T00:24:36.570Z,40.47
2019-05-01T00:27:06.896Z,41.60
2019-05-01T00:29:37.199Z,41.53
2019-05-01T00:32:07.467Z,42.27
2019-05-01T00:34:37.711Z,42.33
2019-05-01T00:37:07.943Z,42.20
2019-05-01T00:39:38.186Z,39.63
2019-05-01T00:42:09.343Z,40.90
2019-05-01T00:44:40.735Z,41.20
2019-05-01T00:47:10.938Z,40.33
2019-05-01T00:49:41.247Z,42.20
2019-05-01T00:52:11.444Z,41.43
2019-05-01T00:54:43.243Z,41.30
2019-05-01T00:57:35.846Z,41.10
2019-05-01T01:00:25.757Z,41.77
2019-05-01T01:02:56.813Z,43.13
2019-05-01T01:05:27.036Z,44.40
2019-05-01T01:07:57.236Z,43.27
2019-05-01T01:10:27.446Z,43.10
2019-05-01T01:12:57.740Z,43.80
2019-05-01T01:15:27.978Z,42.83
2019-05-01T01:17:58.182Z,46.03
2019-05-01T01:20:28.425Z,43.83
2019-05-01T01:22:58.731Z,43.07
2019-05-01T01:25:28.965Z,45.80
2019-05-01T01:27:59.195Z,45.00
2019-05-01T01:30:29.421Z,44.03
2019-05-01T01:32:59.712Z,44.50
2019-05-01T01:35:29.963Z,44.30
2019-05-01T01:38:00.170Z,44.13
2019-05-01T01:40:30.406Z,46.23
2019-05-01T01:43:22.298Z,44.17
2019-05-01T01:45:53.910Z,45.03
2019-05-01T01:48:24.201Z,46.53
2019-05-01T01:50:54.455Z,44.67
2019-05-01T01:53:25.088Z,44.63
2019-05-01T01:55:55.828Z,43.90
2019-05-01T01:58:26.579Z,44.87
2019-05-01T02:01:13.218Z,45.33
2019-05-01T02:03:46.547Z,44.80
2019-05-01T02:06:16.766Z,46.17
2019-05-01T02:08:56.249Z,45.93
2019-05-01T02:11:19.190Z,47.17
2019-05-01T02:13:49.662Z,46.97
2019-05-01T02:16:19.924Z,47.40
2019-05-01T02:18:50.099Z,48.77
2019-05-01T02:21:20.317Z,47.53
2019-05-01T02:23:50.495Z,48.50
2019-05-01T02:26:22.412Z,47.03
2019-05-01T02:28:58.663Z,45.93
2019-05-01T02:31:44.296Z,46.63
2019-05-01T02:34:15.356Z,49.07
2019-05-01T02:36:46.939Z,47.87
2019-05-01T02:39:18.890Z,46.60
2019-05-01T02:41:52.061Z,48.40
2019-05-01T02:44:31.750Z,49.17
2019-05-01T02:47:04.921Z,49.60
2019-05-01T02:49:55.951Z,50.07
2019-05-01T02:52:30.466Z,49.67
2019-05-01T02:55:37.453Z,48.73
2019-05-01T02:58:08.412Z,48.07
2019-05-01T03:00:38.879Z,48.90
2019-05-01T03:03:09.806Z,48.23
2019-05-01T03:05:40.039Z,48.03
2019-05-01T03:08:10.739Z,47.73
2019-05-01T03:10:40.940Z,48.50
2019-05-01T03:13:11.268Z,46.80
2019-05-01T03:15:41.482Z,48.67
2019-05-01T03:18:26.259Z,47.77
2019-05-01T03:21:07.921Z,47.27
2019-05-01T03:23:51.490Z,46.33
2019-05-01T03:26:21.800Z,47.50
2019-05-01T03:28:52.042Z,47.03
2019-05-01T03:31:22.251Z,46.47
2019-05-01T03:33:52.706Z,49.27
2019-05-01T03:36:22.988Z,48.07
2019-05-01T03:38:53.483Z,47.10
2019-05-01T03:41:23.987Z,46.97
2019-05-01T03:43:54.505Z,49.00
2019-05-01T03:46:24.927Z,48.27
2019-05-01T03:48:55.203Z,47.23
2019-05-01T03:51:25.385Z,47.17
2019-05-01T03:53:55.578Z,45.87
2019-05-01T03:56:25.797Z,49.27
2019-05-01T03:58:56.034Z,47.60
2019-05-01T04:01:51.653Z,47.43
2019-05-01T04:04:24.644Z,47.77
2019-05-01T04:06:55.411Z,48.70
2019-05-01T04:09:26.175Z,49.80
2019-05-01T04:11:56.502Z,48.17
2019-05-01T04:14:26.702Z,50.57
2019-05-01T04:17:04.563Z,48.90
2019-05-01T04:19:34.864Z,49.47
2019-05-01T04:22:12.011Z,50.10
2019-05-01T04:24:43.074Z,50.40
2019-05-01T04:27:19.168Z,50.97
2019-05-01T04:30:12.186Z,49.60
2019-05-01T04:32:52.279Z,49.03
2019-05-01T04:35:25.450Z,51.73
2019-05-01T04:37:57.706Z,52.50
2019-05-01T04:40:28.090Z,53.70
2019-05-01T04:42:58.878Z,54.27
2019-05-01T04:45:29.315Z,55.70
2019-05-01T04:47:59.541Z,57.93
2019-05-01T04:50:29.995Z,58.27
2019-05-01T04:53:00.243Z,58.63
2019-05-01T04:55:31.898Z,59.60
2019-05-01T04:58:02.272Z,57.37
2019-05-01T05:00:32.785Z,57.00
2019-05-01T05:03:06.361Z,58.63
2019-05-01T05:05:38.284Z,59.37
2019-05-01T05:08:08.502Z,59.30
2019-05-01T05:10:39.036Z,58.27
2019-05-01T05:13:28.407Z,58.00
2019-05-01T05:16:20.860Z,60.30
2019-05-01T05:18:51.441Z,60.03
2019-05-01T05:21:21.775Z,59.30
2019-05-01T05:23:51.982Z,59.30
2019-05-01T05:26:22.483Z,59.37
2019-05-01T05:28:52.978Z,60.63
2019-05-01T05:31:25.583Z,60.50
2019-05-01T05:33:58.610Z,61.43
2019-05-01T05:36:31.556Z,61.90
2019-05-01T05:39:22.894Z,64.70
2019-05-01T05:41:55.853Z,64.57
2019-05-01T05:44:26.214Z,65.90
2019-05-01T05:46:56.850Z,66.27
2019-05-01T05:49:27.143Z,66.23
2019-05-01T05:52:14.514Z,70.20
2019-05-01T05:55:07.773Z,72.83
2019-05-01T05:58:01.390Z,70.00
2019-05-01T06:00:53.641Z,71.10
2019-05-01T06:03:44.393Z,74.80
2019-05-01T06:06:30.420Z,71.87
2019-05-01T06:09:03.954Z,71.33
2019-05-01T06:11:53.465Z,75.90
2019-05-01T06:14:52.795Z,74.27
2019-05-01T06:17:30.302Z,74.53
2019-05-01T06:20:07.908Z,75.73
2019-05-01T06:22:57.982Z,77.80
2019-05-01T06:25:32.351Z,80.97
2019-05-01T06:28:02.772Z,82.87
2019-05-01T06:30:33.651Z,76.67
2019-05-01T06:33:08.841Z,83.07
2019-05-01T06:35:38.082Z,81.20
2019-05-01T06:38:13.593Z,79.03
2019-05-01T06:40:53.012Z,83.07
2019-05-01T06:43:49.179Z,83.40
2019-05-01T06:46:31.678Z,83.00
2019-05-01T06:49:12.230Z,81.27
2019-05-01T06:51:55.227Z,83.07
2019-05-01T06:54:27.574Z,84.87
2019-05-01T06:56:58.639Z,85.37
2019-05-01T06:59:31.418Z,86.17
2019-05-01T07:02:01.863Z,85.00
2019-05-01T07:04:37.933Z,84.50
2019-05-01T07:07:06.766Z,85.50
2019-05-01T07:09:38.998Z,86.10
2019-05-01T07:12:14.298Z,85.27
2019-05-01T07:14:47.188Z,83.47
2019-05-01T07:17:16.892Z,85.13
2019-05-01T07:19:58.321Z,86.47
2019-05-01T07:22:28.654Z,85.27
2019-05-01T07:25:03.787Z,84.43
2019-05-01T07:27:31.059Z,85.17
2019-05-01T07:30:09.745Z,85.30
2019-05-01T07:32:41.060Z,82.77
2019-05-01T07:35:12.327Z,88.70
2019-05-01T07:37:42.920Z,83.97
2019-05-01T07:40:13.539Z,85.23
2019-05-01T07:42:48.213Z,82.97
2019-05-01T07:45:43.527Z,84.00
2019-05-01T07:48:12.986Z,83.93
2019-05-01T07:50:43.510Z,82.80
2019-05-01T07:53:13.713Z,83.30
2019-05-01T07:55:44.049Z,84.93
2019-05-01T07:58:18.128Z,84.37
2019-05-01T08:00:56.706Z,84.87
2019-05-01T08:03:27.092Z,84.50
2019-05-01T08:05:57.357Z,85.90
2019-05-01T08:08:27.685Z,85.27
2019-05-01T08:10:59.942Z,86.17
2019-05-01T08:13:30.649Z,81.77
2019-05-01T08:16:06.703Z,83.73
2019-05-01T08:18:39.620Z,81.27
2019-05-01T08:21:37.637Z,82.87
2019-05-01T08:24:08.934Z,80.30
2019-05-01T08:26:39.584Z,74.87
2019-05-01T08:29:30.170Z,77.17
2019-05-01T08:32:28.474Z,78.60
2019-05-01T08:35:02.848Z,75.13
2019-05-01T08:37:33.143Z,71.57
2019-05-01T08:40:03.410Z,73.83
2019-05-01T08:42:37.734Z,74.27
2019-05-01T08:45:28.679Z,76.83
2019-05-01T08:48:04.833Z,74.70
2019-05-01T08:50:35.024Z,73.93
2019-05-01T08:53:05.305Z,72.37
2019-05-01T08:55:35.578Z,74.63
2019-05-01T08:58:08.864Z,76.80
2019-05-01T09:00:41.027Z,70.03
2019-05-01T09:03:13.765Z,71.03
2019-05-01T09:05:41.856Z,72.13
2019-05-01T09:08:12.121Z,71.13
2019-05-01T09:10:42.371Z,75.23
2019-05-01T09:13:12.632Z,71.40
2019-05-01T09:15:43.651Z,72.63
2019-05-01T09:18:14.852Z,72.40
2019-05-01T09:20:46.912Z,70.67
2019-05-01T09:23:17.218Z,68.53
2019-05-01T09:26:14.509Z,69.57
2019-05-01T09:28:42.379Z,68.20
2019-05-01T09:31:14.386Z,68.80
2019-05-01T09:33:44.666Z,73.40
2019-05-01T09:36:15.009Z,69.03
2019-05-01T09:38:45.302Z,71.63
2019-05-01T09:41:15.551Z,70.20
2019-05-01T09:43:45.978Z,73.17
2019-05-01T09:46:17.310Z,68.30
2019-05-01T09:48:47.918Z,71.17
2019-05-01T09:51:42.611Z,68.30
2019-05-01T09:54:23.075Z,73.50
2019-05-01T09:56:53.334Z,77.37
2019-05-01T09:59:23.598Z,75.50
2019-05-01T10:01:53.866Z,79.67
2019-05-01T10:04:25.323Z,76.63
2019-05-01T10:06:56.279Z,77.00
2019-05-01T10:09:27.021Z,79.07
2019-05-01T10:11:57.395Z,80.27
2019-05-01T10:14:31.639Z,80.77
2019-05-01T10:16:59.894Z,83.57
2019-05-01T10:19:30.201Z,79.63
2019-05-01T10:22:02.361Z,80.10
2019-05-01T10:24:37.609Z,80.30
2019-05-01T10:27:07.284Z,80.87
2019-05-01T10:29:56.826Z,82.30
2019-05-01T10:32:34.677Z,80.07
2019-05-01T10:35:41.878Z,79.73
2019-05-01T10:38:04.658Z,79.80
2019-05-01T10:40:34.932Z,79.07
2019-05-01T10:43:05.706Z,81.33
2019-05-01T10:45:35.964Z,86.07
2019-05-01T10:48:07.888Z,82.70
2019-05-01T10:50:39.309Z,82.37
2019-05-01T10:53:09.610Z,81.83
2019-05-01T10:55:41.473Z,84.10
2019-05-01T10:58:12.743Z,87.13
2019-05-01T11:00:45.476Z,85.83
2019-05-01T11:03:16.839Z,80.27
2019-05-01T11:05:55.672Z,82.63
2019-05-01T11:08:24.566Z,82.37
2019-05-01T11:10:54.866Z,79.03
2019-05-01T11:13:25.170Z,82.60
2019-05-01T11:15:55.476Z,81.03
2019-05-01T11:18:25.894Z,79.20
2019-05-01T11:20:56.164Z,84.77
2019-05-01T11:23:26.452Z,84.87
2019-05-01T11:25:57.698Z,80.53
2019-05-01T11:28:27.969Z,80.07
2019-05-01T11:30:58.247Z,80.30
2019-05-01T11:33:45.541Z,79.60
2019-05-01T11:36:40.878Z,78.30
2019-05-01T11:39:23.718Z,80.67
2019-05-01T11:41:58.372Z,79.33
2019-05-01T11:44:28.643Z,83.83
2019-05-01T11:46:59.055Z,77.63
2019-05-01T11:49:29.359Z,82.27
2019-05-01T11:51:59.708Z,81.30
2019-05-01T11:54:29.967Z,80.27
2019-05-01T11:57:00.301Z,81.97
2019-05-01T11:59:32.703Z,81.30
2019-05-01T12:02:02.674Z,80.87
2019-05-01T12:04:33.026Z,78.70
2019-05-01T12:07:03.257Z,80.20
2019-05-01T12:09:33.533Z,81.73
2019-05-01T12:12:07.195Z,77.90
2019-05-01T12:14:37.574Z,80.23
2019-05-01T12:17:26.799Z,78.37
2019-05-01T12:19:57.130Z,79.77
2019-05-01T12:22:27.391Z,79.40
2019-05-01T12:24:57.680Z,77.13
2019-05-01T12:27:28.029Z,73.83
2019-05-01T12:29:59.460Z,73.90
2019-05-01T12:32:30.742Z,76.27
2019-05-01T12:35:00.988Z,79.90
2019-05-01T12:37:35.857Z,76.93
2019-05-01T12:40:07.194Z,75.70
2019-05-01T12:42:37.459Z,77.07
2019-05-01T12:45:09.644Z,74.97
2019-05-01T12:47:46.697Z,72.97
2019-05-01T12:50:17.647Z,71.83
2019-05-01T12:53:10.335Z,74.23
2019-05-01T12:55:59.828Z,72.37
2019-05-01T12:58:30.086Z,73.93
2019-05-01T13:01:00.478Z,74.60
2019-05-01T13:03:30.877Z,71.70
2019-05-01T13:06:01.195Z,72.23
2019-05-01T13:08:31.454Z,68.27
2019-05-01T13:11:03.489Z,70.93
2019-05-01T13:13:33.773Z,72.70
2019-05-01T13:16:04.168Z,72.63
2019-05-01T13:18:34.498Z,70.73
2019-05-01T13:21:04.838Z,71.53
2019-05-01T13:23:35.211Z,74.87
2019-05-01T13:26:27.791Z,70.67
2019-05-01T13:29:17.462Z,73.60
2019-05-01T13:32:13.319Z,71.77
2019-05-01T13:34:44.947Z,70.57
2019-05-01T13:37:15.509Z,69.63
2019-05-01T13:39:45.742Z,69.20
2019-05-01T13:42:16.053Z,73.33
2019-05-01T13:44:46.382Z,72.87
2019-05-01T13:47:16.929Z,67.10
2019-05-01T13:49:47.210Z,64.37
2019-05-01T13:52:17.850Z,70.47
2019-05-01T13:54:48.210Z,70.80
2019-05-01T13:57:19.807Z,68.50
2019-05-01T14:00:09.424Z,67.80
2019-05-01T14:02:41.330Z,67.30
2019-05-01T14:05:11.798Z,65.30
2019-05-01T14:07:42.091Z,66.03
2019-05-01T14:10:14.083Z,67.63
2019-05-01T14:12:44.464Z,66.37
2019-05-01T14:15:14.905Z,66.40
2019-05-01T14:17:45.207Z,61.43
2019-05-01T14:20:37.466Z,61.43
2019-05-01T14:23:35.311Z,64.30
2019-05-01T14:26:06.502Z,63.90
2019-05-01T14:28:36.784Z,60.77
2019-05-01T14:31:07.310Z,61.47
2019-05-01T14:33:37.594Z,62.73
2019-05-01T14:36:07.867Z,63.63
2019-05-01T14:38:38.288Z,63.67
2019-05-01T14:41:08.649Z,60.03
2019-05-01T14:43:38.901Z,60.23
2019-05-01T14:46:09.252Z,60.47
2019-05-01T14:48:39.623Z,61.17
2019-05-01T14:51:09.977Z,58.83
2019-05-01T14:53:40.369Z,57.77
2019-05-01T14:56:10.676Z,57.17
2019-05-01T14:58:40.982Z,56.20
2019-05-01T15:01:11.239Z,57.57
2019-05-01T15:03:41.568Z,58.50
2019-05-01T15:06:11.864Z,58.77
2019-05-01T15:08:42.199Z,58.67
2019-05-01T15:11:12.439Z,57.33
2019-05-01T15:13:52.575Z,60.43
2019-05-01T15:16:30.854Z,56.57
2019-05-01T15:19:13.702Z,56.13
2019-05-01T15:22:02.974Z,54.23
2019-05-01T15:24:33.290Z,51.80
2019-05-01T15:27:03.519Z,51.37
2019-05-01T15:29:33.832Z,51.83
2019-05-01T15:32:04.061Z,52.50
2019-05-01T15:34:34.354Z,52.90
2019-05-01T15:37:04.597Z,46.53
2019-05-01T15:39:46.544Z,48.00
2019-05-01T15:42:38.490Z,50.77
2019-05-01T15:45:09.227Z,49.20
2019-05-01T15:47:39.500Z,49.10
2019-05-01T15:50:09.920Z,50.47
2019-05-01T15:52:40.212Z,52.67
2019-05-01T15:55:10.767Z,52.57
2019-05-01T15:57:41.084Z,52.43
2019-05-01T16:00:14.171Z,51.93
2019-05-01T16:02:44.479Z,50.27
2019-05-01T16:05:14.734Z,50.93
2019-05-01T16:07:45.059Z,50.80
2019-05-01T16:10:18.237Z,50.37
2019-05-01T16:12:56.234Z,51.77
2019-05-01T16:15:36.281Z,49.63
2019-05-01T16:18:06.698Z,52.40
2019-05-01T16:20:36.983Z,52.07
2019-05-01T16:23:07.367Z,52.47
2019-05-01T16:25:37.759Z,53.30
2019-05-01T16:28:09.619Z,54.33
2019-05-01T16:30:39.987Z,54.10
2019-05-01T16:33:10.294Z,56.67
2019-05-01T16:35:40.559Z,52.83
2019-05-01T16:38:23.261Z,53.47
2019-05-01T16:41:06.131Z,52.10
2019-05-01T16:43:36.408Z,53.87
2019-05-01T16:46:06.857Z,55.13
2019-05-01T16:48:37.261Z,52.43
2019-05-01T16:51:07.557Z,56.53
2019-05-01T16:53:37.888Z,55.40
2019-05-01T16:56:08.256Z,55.37
2019-05-01T16:58:38.953Z,56.50
2019-05-01T17:01:13.887Z,56.97
2019-05-01T17:04:01.910Z,57.07
2019-05-01T17:07:00.756Z,59.10
2019-05-01T17:09:48.974Z,59.93
2019-05-01T17:12:22.259Z,57.60
2019-05-01T17:14:52.570Z,59.57
2019-05-01T17:17:24.233Z,56.97
2019-05-01T17:19:54.516Z,55.13
2019-05-01T17:22:24.764Z,55.40
2019-05-01T17:24:55.177Z,54.97
2019-05-01T17:27:25.452Z,53.73
2019-05-01T17:29:55.734Z,54.83
2019-05-01T17:32:26.007Z,54.27
2019-05-01T17:34:56.334Z,52.50
2019-05-01T17:37:26.621Z,54.93
2019-05-01T17:39:56.938Z,50.67
2019-05-01T17:42:27.386Z,50.13
2019-05-01T17:44:59.629Z,50.47
2019-05-01T17:47:29.592Z,49.63
2019-05-01T17:49:59.981Z,48.63
2019-05-01T17:52:30.212Z,48.07
2019-05-01T17:55:01.440Z,50.77
2019-05-01T17:57:33.796Z,48.27
2019-05-01T18:00:07.872Z,51.77
2019-05-01T18:02:51.053Z,48.93
2019-05-01T18:05:33.763Z,51.27
2019-05-01T18:08:04.086Z,48.80
2019-05-01T18:10:38.646Z,49.93
2019-05-01T18:13:06.386Z,50.37
2019-05-01T18:15:36.927Z,52.67
2019-05-01T18:18:10.753Z,52.00
2019-05-01T18:20:39.346Z,52.87
2019-05-01T18:23:30.072Z,52.27
2019-05-01T18:26:10.064Z,52.37
2019-05-01T18:29:05.726Z,50.70
2019-05-01T18:31:34.485Z,53.67
2019-05-01T18:34:04.848Z,53.50
2019-05-01T18:36:39.550Z,53.20
2019-05-01T18:39:27.126Z,52.67
2019-05-01T18:42:03.097Z,54.83
2019-05-01T18:44:33.447Z,52.53
2019-05-01T18:47:04.295Z,53.00
2019-05-01T18:49:34.587Z,53.97
2019-05-01T18:52:06.610Z,52.83
2019-05-01T18:54:37.348Z,54.80
2019-05-01T18:57:07.837Z,58.73
2019-05-01T18:59:38.206Z,58.47
2019-05-01T19:02:08.978Z,58.63
2019-05-01T19:04:39.340Z,56.87
2019-05-01T19:07:10.831Z,56.07
2019-05-01T19:09:41.431Z,59.07
2019-05-01T19:12:13.139Z,57.57
2019-05-01T19:14:43.815Z,56.63
2019-05-01T19:17:15.105Z,56.73
2019-05-01T19:19:45.676Z,57.77
2019-05-01T19:22:16.108Z,57.53
2019-05-01T19:24:46.814Z,59.30
2019-05-01T19:27:18.893Z,58.27
2019-05-01T19:29:49.338Z,57.37
2019-05-01T19:32:21.247Z,57.03
2019-05-01T19:34:51.652Z,60.23
2019-05-01T19:37:23.904Z,56.90
2019-05-01T19:39:55.124Z,57.83
2019-05-01T19:42:25.826Z,60.77
2019-05-01T19:44:57.661Z,60.20
2019-05-01T19:47:28.296Z,59.17
2019-05-01T19:50:06.483Z,59.10
2019-05-01T19:52:32.469Z,60.07
2019-05-01T19:55:06.307Z,62.30
2019-05-01T19:57:35.940Z,59.17
2019-05-01T20:00:07.640Z,59.87
2019-05-01T20:02:39.603Z,58.03
2019-05-01T20:05:11.162Z,59.37
2019-05-01T20:07:41.867Z,58.00
2019-05-01T20:10:12.583Z,57.63
2019-05-01T20:12:42.871Z,57.57
2019-05-01T20:15:13.428Z,58.67
2019-05-01T20:17:43.855Z,60.90
2019-05-01T20:20:14.149Z,60.27
2019-05-01T20:22:48.151Z,59.07
2019-05-01T20:25:19.484Z,60.07
2019-05-01T20:27:53.106Z,62.50
2019-05-01T20:30:20.635Z,60.97
2019-05-01T20:32:51.026Z,61.77
2019-05-01T20:35:23.814Z,63.70
2019-05-01T20:37:53.425Z,63.57
2019-05-01T20:40:23.823Z,63.60
2019-05-01T20:42:54.246Z,62.70
2019-05-01T20:45:24.571Z,62.60
2019-05-01T20:47:54.922Z,64.40
2019-05-01T20:50:26.613Z,62.93
2019-05-01T20:52:56.922Z,62.43
2019-05-01T20:55:27.242Z,63.27
2019-05-01T20:58:15.350Z,63.57
2019-05-01T21:00:48.106Z,65.07
2019-05-01T21:03:19.867Z,64.27
2019-05-01T21:06:02.911Z,62.63
2019-05-01T21:08:42.382Z,64.93
2019-05-01T21:11:16.927Z,64.77
2019-05-01T21:13:47.218Z,62.30
2019-05-01T21:16:18.356Z,64.77
2019-05-01T21:18:48.592Z,65.23
2019-05-01T21:21:18.867Z,63.77
2019-05-01T21:23:53.332Z,64.80
2019-05-01T21:26:21.133Z,62.67
2019-05-01T21:28:51.458Z,64.57
2019-05-01T21:31:23.903Z,64.07
2019-05-01T21:33:53.883Z,64.33
2019-05-01T21:36:24.159Z,63.93
2019-05-01T21:38:54.626Z,64.87
2019-05-01T21:41:25.043Z,69.00
2019-05-01T21:43:55.618Z,66.43
2019-05-01T21:46:25.946Z,65.97
2019-05-01T21:48:57.702Z,67.40
2019-05-01T21:51:30.463Z,64.57
2019-05-01T21:54:00.730Z,68.27
2019-05-01T21:56:31.628Z,65.80
2019-05-01T21:59:06.697Z,63.10
2019-05-01T22:01:34.892Z,63.50
2019-05-01T22:04:06.130Z,66.17
2019-05-01T22:06:36.530Z,64.53
2019-05-01T22:09:15.152Z,65.87
2019-05-01T22:11:45.302Z,66.00
2019-05-01T22:14:36.126Z,63.93
2019-05-01T22:17:07.076Z,61.90
2019-05-01T22:19:37.551Z,63.80
2019-05-01T22:22:24.798Z,65.70
2019-05-01T22:25:18.644Z,65.60
2019-05-01T22:27:52.846Z,66.50
2019-05-01T22:30:42.328Z,66.17
2019-05-01T22:33:12.519Z,65.13
2019-05-01T22:35:46.646Z,65.57
2019-05-01T22:38:16.953Z,66.17
2019-05-01T22:41:07.365Z,66.67
2019-05-01T22:43:37.773Z,65.83
2019-05-01T22:46:10.548Z,65.30
2019-05-01T22:48:40.836Z,66.73
2019-05-01T22:51:22.475Z,67.70
2019-05-01T22:53:55.941Z,68.13
2019-05-01T22:56:26.298Z,65.23
2019-05-01T22:58:57.593Z,68.70
2019-05-01T23:01:28.065Z,65.87
2019-05-01T23:04:06.133Z,66.80
2019-05-01T23:06:37.127Z,64.20
2019-05-01T23:09:11.427Z,61.33
2019-05-01T23:11:44.288Z,58.17
2019-05-01T23:14:14.849Z,60.47
2019-05-01T23:17:03.354Z,60.47
2019-05-01T23:19:36.035Z,57.97
2019-05-01T23:22:07.066Z,60.73
2019-05-01T23:24:38.670Z,59.53
2019-05-01T23:27:09.004Z,62.13
2019-05-01T23:29:39.252Z,61.93
2019-05-01T23:32:09.478Z,63.00
2019-05-01T23:34:39.945Z,62.40
2019-05-01T23:37:10.205Z,62.03
2019-05-01T23:39:42.138Z,62.97
2019-05-01T23:42:12.691Z,63.27
2019-05-01T23:44:44.205Z,62.87
2019-05-01T23:47:14.641Z,64.67
2019-05-01T23:49:47.789Z,62.47
2019-05-01T23:52:16.838Z,63.43
2019-05-01T23:54:47.211Z,62.97
2019-05-01T23:57:18.761Z,63.70
2019-05-01T23:59:49.354Z,62.57
